sensor_id;sensor_type;location;lat;lon;timestamp;temperature;humidity
22071;DHT22;11200;51.488;6.668;2023-03-04T07:18:44;5.10;99.90
22071;DHT22;11200;51.488;6.668;2023-03-04T07:21:12;4.70;99.90
22071;DHT22;11200;51.488;6.668;2023-03-04T07:23:38;6.80;99.90
22071;DHT22;11200;51.488;6.668;2023-03-04T07:26:04;4.90;99.90
22071;DHT22;11200;51.488;6.668;2023-03-04T07:28:30;6.80;99.90
22071;DHT22;11200;51.488;6.668;2023-03-04T07:30:56;4.80;99.90
22071;DHT22;11200;51.488;6.668;2023-03-04T07:33:22;5.00;99.90
22071;DHT22;11200;51.488;6.668;2023-03-04T07:35:47;4.80;99.90
22071;DHT22;11200;51.488;6.668;2023-03-04T07:38:13;5.30;99.90
22071;DHT22;11200;51.488;6.668;2023-03-04T07:40:38;5.00;99.90
22071;DHT22;11200;51.488;6.668;2023-03-04T07:43:04;5.40;99.90
22071;DHT22;11200;51.488;6.668;2023-03-04T07:45:30;7.00;99.90
22071;DHT22;11200;51.488;6.668;2023-03-04T07:47:57;7.10;99.90
22071;DHT22;11200;51.488;6.668;2023-03-04T07:50:23;6.10;99.90
22071;DHT22;11200;51.488;6.668;2023-03-04T07:52:49;4.90;99.90
22071;DHT22;11200;51.488;6.668;2023-03-04T07:55:17;5.70;99.90
22071;DHT22;11200;51.488;6.668;2023-03-04T07:57:46;5.40;99.90
22071;DHT22;11200;51.488;6.668;2023-03-04T08:00:14;6.20;99.90
22071;DHT22;11200;51.488;6.668;2023-03-04T08:02:40;5.40;99.90
22071;DHT22;11200;51.488;6.668;2023-03-04T08:05:07;5.80;99.90
22071;DHT22;11200;51.488;6.668;2023-03-04T08:07:33;5.90;99.90
22071;DHT22;11200;51.488;6.668;2023-03-04T08:09:58;6.40;99.90
22071;DHT22;11200;51.488;6.668;2023-03-04T08:12:25;5.20;99.90
22071;DHT22;11200;51.488;6.668;2023-03-04T08:14:51;5.60;99.90
22071;DHT22;11200;51.488;6.668;2023-03-04T08:17:17;5.60;99.90
22071;DHT22;11200;51.488;6.668;2023-03-04T08:19:43;5.70;99.90
22071;DHT22;11200;51.488;6.668;2023-03-04T08:22:09;5.70;99.90
22071;DHT22;11200;51.488;6.668;2023-03-04T08:24:34;5.70;99.90
22071;DHT22;11200;51.488;6.668;2023-03-04T08:27:00;6.00;99.90
22071;DHT22;11200;51.488;6.668;2023-03-04T08:29:26;6.10;99.90
22071;DHT22;11200;51.488;6.668;2023-03-04T08:31:52;5.90;99.90
22071;DHT22;11200;51.488;6.668;2023-03-04T08:34:20;6.10;99.90
22071;DHT22;11200;51.488;6.668;2023-03-04T08:36:46;6.20;99.90
22071;DHT22;11200;51.488;6.668;2023-03-04T08:39:14;6.70;99.90
22071;DHT22;11200;51.488;6.668;2023-03-04T08:41:41;6.30;99.90
22071;DHT22;11200;51.488;6.668;2023-03-04T08:44:07;6.40;99.90
22071;DHT22;11200;51.488;6.668;2023-03-04T08:46:38;6.30;99.90
22071;DHT22;11200;51.488;6.668;2023-03-04T08:49:04;6.40;99.90
22071;DHT22;11200;51.488;6.668;2023-03-04T08:51:30;6.40;99.90
22071;DHT22;11200;51.488;6.668;2023-03-04T08:53:56;6.50;99.90
22071;DHT22;11200;51.488;6.668;2023-03-04T08:56:22;6.50;99.90
22071;DHT22;11200;51.488;6.668;2023-03-04T08:58:48;6.60;99.90
22071;DHT22;11200;51.488;6.668;2023-03-04T09:01:14;6.70;99.90
22071;DHT22;11200;51.488;6.668;2023-03-04T09:03:41;6.80;99.90
22071;DHT22;11200;51.488;6.668;2023-03-04T09:06:08;6.90;99.90
22071;DHT22;11200;51.488;6.668;2023-03-04T09:08:35;7.00;99.90
22071;DHT22;11200;51.488;6.668;2023-03-04T09:11:01;7.00;99.90
22071;DHT22;11200;51.488;6.668;2023-03-04T09:13:28;7.00;99.90
22071;DHT22;11200;51.488;6.668;2023-03-04T09:15:54;7.10;99.90
22071;DHT22;11200;51.488;6.668;2023-03-04T09:18:22;7.20;99.90
22071;DHT22;11200;51.488;6.668;2023-03-04T09:20:48;7.20;99.90
22071;DHT22;11200;51.488;6.668;2023-03-04T09:23:14;7.20;99.90
22071;DHT22;11200;51.488;6.668;2023-03-04T09:25:42;7.30;99.90
22071;DHT22;11200;51.488;6.668;2023-03-04T09:28:09;7.40;99.90
22071;DHT22;11200;51.488;6.668;2023-03-04T09:30:35;7.50;99.90
22071;DHT22;11200;51.488;6.668;2023-03-04T09:33:00;7.60;99.90
22071;DHT22;11200;51.488;6.668;2023-03-04T09:35:27;7.70;99.90
22071;DHT22;11200;51.488;6.668;2023-03-04T09:37:54;7.80;99.90
22071;DHT22;11200;51.488;6.668;2023-03-04T09:40:27;7.90;99.90
22071;DHT22;11200;51.488;6.668;2023-03-04T09:43:02;8.00;99.90
22071;DHT22;11200;51.488;6.668;2023-03-04T09:45:45;8.20;99.90
22071;DHT22;11200;51.488;6.668;2023-03-04T09:48:16;8.20;99.90
22071;DHT22;11200;51.488;6.668;2023-03-04T09:53:24;8.30;99.90
22071;DHT22;11200;51.488;6.668;2023-03-04T09:55:54;8.50;99.90
22071;DHT22;11200;51.488;6.668;2023-03-04T09:58:29;8.50;99.90
22071;DHT22;11200;51.488;6.668;2023-03-04T10:01:18;8.60;99.90
22071;DHT22;11200;51.488;6.668;2023-03-04T10:03:48;8.70;99.90
22071;DHT22;11200;51.488;6.668;2023-03-04T10:06:18;8.80;99.90
22071;DHT22;11200;51.488;6.668;2023-03-04T10:11:17;9.00;99.90
22071;DHT22;11200;51.488;6.668;2023-03-04T10:14:11;9.00;99.90
22071;DHT22;11200;51.488;6.668;2023-03-04T10:16:51;9.00;99.90
22071;DHT22;11200;51.488;6.668;2023-03-04T10:25:28;9.20;99.90
22071;DHT22;11200;51.488;6.668;2023-03-04T10:33:25;9.40;99.90
22071;DHT22;11200;51.488;6.668;2023-03-04T10:38:53;9.50;99.90
22071;DHT22;11200;51.488;6.668;2023-03-04T10:41:23;9.60;99.90
22071;DHT22;11200;51.488;6.668;2023-03-04T10:44:13;9.60;99.90
22071;DHT22;11200;51.488;6.668;2023-03-04T10:46:47;9.60;99.90
22071;DHT22;11200;51.488;6.668;2023-03-04T10:49:16;9.70;99.90
22071;DHT22;11200;51.488;6.668;2023-03-04T10:51:46;9.70;99.90
22071;DHT22;11200;51.488;6.668;2023-03-04T10:54:32;9.70;99.90
22071;DHT22;11200;51.488;6.668;2023-03-04T10:57:02;9.60;99.90
22071;DHT22;11200;51.488;6.668;2023-03-04T11:02:35;9.60;99.90
22071;DHT22;11200;51.488;6.668;2023-03-04T11:07:52;9.60;99.90
22071;DHT22;11200;51.488;6.668;2023-03-04T11:10:21;9.60;99.90
22071;DHT22;11200;51.488;6.668;2023-03-04T11:15:22;9.50;99.90
22071;DHT22;11200;51.488;6.668;2023-03-04T11:18:02;9.60;99.90
22071;DHT22;11200;51.488;6.668;2023-03-04T11:20:32;9.50;99.90
22071;DHT22;11200;51.488;6.668;2023-03-04T11:23:09;9.50;99.90
22071;DHT22;11200;51.488;6.668;2023-03-04T11:25:41;9.50;99.90
22071;DHT22;11200;51.488;6.668;2023-03-04T11:28:25;9.50;99.90
22071;DHT22;11200;51.488;6.668;2023-03-04T11:31:03;9.50;99.90
22071;DHT22;11200;51.488;6.668;2023-03-04T11:36:32;9.50;99.90
22071;DHT22;11200;51.488;6.668;2023-03-04T11:38:59;9.50;99.90
22071;DHT22;11200;51.488;6.668;2023-03-04T11:41:29;9.50;99.90
22071;DHT22;11200;51.488;6.668;2023-03-04T11:43:57;9.50;99.90
22071;DHT22;11200;51.488;6.668;2023-03-04T12:00:47;9.40;99.90
22071;DHT22;11200;51.488;6.668;2023-03-04T12:23:16;9.40;99.90
22071;DHT22;11200;51.488;6.668;2023-03-04T12:26:03;9.40;99.90
22071;DHT22;11200;51.488;6.668;2023-03-04T12:36:43;9.30;99.90
22071;DHT22;11200;51.488;6.668;2023-03-04T12:42:13;9.30;99.90
22071;DHT22;11200;51.488;6.668;2023-03-04T12:52:53;9.20;99.90
22071;DHT22;11200;51.488;6.668;2023-03-04T12:55:46;9.20;99.90
22071;DHT22;11200;51.488;6.668;2023-03-04T12:58:20;9.20;99.90
22071;DHT22;11200;51.488;6.668;2023-03-04T13:01:14;9.20;99.90
22071;DHT22;11200;51.488;6.668;2023-03-04T13:06:57;9.10;99.90
22071;DHT22;11200;51.488;6.668;2023-03-04T13:09:27;9.10;99.90
22071;DHT22;11200;51.488;6.668;2023-03-04T13:12:20;9.20;99.90
22071;DHT22;11200;51.488;6.668;2023-03-04T13:20:40;9.20;99.90
22071;DHT22;11200;51.488;6.668;2023-03-04T13:25:42;9.10;99.90
22071;DHT22;11200;51.488;6.668;2023-03-04T13:28:12;9.20;99.90
22071;DHT22;11200;51.488;6.668;2023-03-04T13:30:42;9.20;99.90
22071;DHT22;11200;51.488;6.668;2023-03-04T13:36:01;9.20;99.90
22071;DHT22;11200;51.488;6.668;2023-03-04T13:43:56;9.20;99.90
22071;DHT22;11200;51.488;6.668;2023-03-04T13:51:31;9.10;99.90
22071;DHT22;11200;51.488;6.668;2023-03-04T13:56:29;9.10;99.90
22071;DHT22;11200;51.488;6.668;2023-03-04T14:01:34;9.10;99.90
22071;DHT22;11200;51.488;6.668;2023-03-04T14:04:35;9.10;99.90
22071;DHT22;11200;51.488;6.668;2023-03-04T14:06:54;9.10;99.90
22071;DHT22;11200;51.488;6.668;2023-03-04T14:09:33;9.10;99.90
22071;DHT22;11200;51.488;6.668;2023-03-04T14:12:04;9.00;99.90
22071;DHT22;11200;51.488;6.668;2023-03-04T14:14:48;9.10;99.90
22071;DHT22;11200;51.488;6.668;2023-03-04T14:17:23;9.20;99.90
22071;DHT22;11200;51.488;6.668;2023-03-04T14:19:50;9.10;99.90
22071;DHT22;11200;51.488;6.668;2023-03-04T14:22:31;9.10;99.90
22071;DHT22;11200;51.488;6.668;2023-03-04T14:27:46;9.10;99.90
22071;DHT22;11200;51.488;6.668;2023-03-04T14:30:23;9.10;99.90
22071;DHT22;11200;51.488;6.668;2023-03-04T14:32:51;9.10;99.90
22071;DHT22;11200;51.488;6.668;2023-03-04T14:35:28;9.10;99.90
22071;DHT22;11200;51.488;6.668;2023-03-04T14:38:01;9.10;99.90
22071;DHT22;11200;51.488;6.668;2023-03-04T14:40:40;9.10;99.90
22071;DHT22;11200;51.488;6.668;2023-03-04T14:43:19;9.10;99.90
22071;DHT22;11200;51.488;6.668;2023-03-04T14:45:47;9.10;99.90
22071;DHT22;11200;51.488;6.668;2023-03-04T14:48:24;9.20;99.90
22071;DHT22;11200;51.488;6.668;2023-03-04T14:50:52;9.10;99.90
22071;DHT22;11200;51.488;6.668;2023-03-04T14:53:21;8.90;99.90
22071;DHT22;11200;51.488;6.668;2023-03-04T14:56:03;9.10;99.90
22071;DHT22;11200;51.488;6.668;2023-03-04T14:58:33;9.10;99.90
22071;DHT22;11200;51.488;6.668;2023-03-04T15:01:22;9.10;99.90
22071;DHT22;11200;51.488;6.668;2023-03-04T15:04:05;9.10;99.90
22071;DHT22;11200;51.488;6.668;2023-03-04T15:06:50;9.10;99.90
22071;DHT22;11200;51.488;6.668;2023-03-04T15:09:17;9.00;99.90
22071;DHT22;11200;51.488;6.668;2023-03-04T15:11:49;9.00;99.90
22071;DHT22;11200;51.488;6.668;2023-03-04T15:14:51;9.00;99.90
22071;DHT22;11200;51.488;6.668;2023-03-04T15:17:37;9.00;99.90
22071;DHT22;11200;51.488;6.668;2023-03-04T15:22:31;8.90;99.90
22071;DHT22;11200;51.488;6.668;2023-03-04T15:24:56;8.90;99.90
22071;DHT22;11200;51.488;6.668;2023-03-04T15:27:23;8.80;99.90
22071;DHT22;11200;51.488;6.668;2023-03-04T15:29:50;8.80;99.90
22071;DHT22;11200;51.488;6.668;2023-03-04T15:32:21;8.80;99.90
22071;DHT22;11200;51.488;6.668;2023-03-04T15:34:47;8.80;99.90
22071;DHT22;11200;51.488;6.668;2023-03-04T15:37:27;8.70;99.90
22071;DHT22;11200;51.488;6.668;2023-03-04T15:39:55;8.70;99.90
22071;DHT22;11200;51.488;6.668;2023-03-04T15:42:22;8.70;99.90
22071;DHT22;11200;51.488;6.668;2023-03-04T15:44:47;8.70;99.90
22071;DHT22;11200;51.488;6.668;2023-03-04T15:47:13;8.70;99.90
22071;DHT22;11200;51.488;6.668;2023-03-04T15:49:40;8.60;99.90
22071;DHT22;11200;51.488;6.668;2023-03-04T15:52:14;8.60;99.90
22071;DHT22;11200;51.488;6.668;2023-03-04T15:54:41;8.60;99.90
22071;DHT22;11200;51.488;6.668;2023-03-04T15:57:22;8.50;99.90
22071;DHT22;11200;51.488;6.668;2023-03-04T15:59:48;8.50;99.90
22071;DHT22;11200;51.488;6.668;2023-03-04T16:02:19;8.50;99.90
22071;DHT22;11200;51.488;6.668;2023-03-04T16:04:45;8.50;99.90
22071;DHT22;11200;51.488;6.668;2023-03-04T16:07:17;8.40;99.90
22071;DHT22;11200;51.488;6.668;2023-03-04T16:09:43;8.40;99.90
22071;DHT22;11200;51.488;6.668;2023-03-04T16:12:10;8.40;99.90
22071;DHT22;11200;51.488;6.668;2023-03-04T16:14:37;8.40;99.90
22071;DHT22;11200;51.488;6.668;2023-03-04T16:17:02;8.30;99.90
22071;DHT22;11200;51.488;6.668;2023-03-04T16:19:28;8.30;99.90
22071;DHT22;11200;51.488;6.668;2023-03-04T16:21:54;8.60;99.90
22071;DHT22;11200;51.488;6.668;2023-03-04T16:24:19;8.30;99.90
22071;DHT22;11200;51.488;6.668;2023-03-04T16:26:46;8.30;99.90
22071;DHT22;11200;51.488;6.668;2023-03-04T16:29:12;8.30;99.90
22071;DHT22;11200;51.488;6.668;2023-03-04T16:31:37;8.20;99.90
22071;DHT22;11200;51.488;6.668;2023-03-04T16:34:03;8.20;99.90
22071;DHT22;11200;51.488;6.668;2023-03-04T16:36:29;8.20;99.90
22071;DHT22;11200;51.488;6.668;2023-03-04T16:38:55;8.20;99.90
22071;DHT22;11200;51.488;6.668;2023-03-04T16:41:25;8.20;99.90
22071;DHT22;11200;51.488;6.668;2023-03-04T16:43:52;8.20;99.90
22071;DHT22;11200;51.488;6.668;2023-03-04T16:46:19;8.10;99.90
22071;DHT22;11200;51.488;6.668;2023-03-04T16:48:46;8.10;99.90
22071;DHT22;11200;51.488;6.668;2023-03-04T16:51:17;8.10;99.90
22071;DHT22;11200;51.488;6.668;2023-03-04T16:53:47;8.10;99.90
22071;DHT22;11200;51.488;6.668;2023-03-04T16:56:15;8.00;99.90
22071;DHT22;11200;51.488;6.668;2023-03-04T16:58:41;8.00;99.90
22071;DHT22;11200;51.488;6.668;2023-03-04T17:03:40;8.00;99.90
22071;DHT22;11200;51.488;6.668;2023-03-04T17:06:06;8.00;99.90
22071;DHT22;11200;51.488;6.668;2023-03-04T17:08:31;7.90;99.90
22071;DHT22;11200;51.488;6.668;2023-03-04T17:10:57;7.80;99.90
22071;DHT22;11200;51.488;6.668;2023-03-04T17:13:22;7.90;99.90
22071;DHT22;11200;51.488;6.668;2023-03-04T17:15:48;7.80;99.90
22071;DHT22;11200;51.488;6.668;2023-03-04T17:18:13;7.80;99.90
22071;DHT22;11200;51.488;6.668;2023-03-04T17:20:39;7.80;99.90
22071;DHT22;11200;51.488;6.668;2023-03-04T17:23:05;7.80;99.90
22071;DHT22;11200;51.488;6.668;2023-03-04T17:25:30;7.80;99.90
22071;DHT22;11200;51.488;6.668;2023-03-04T17:27:56;7.80;99.90
22071;DHT22;11200;51.488;6.668;2023-03-04T17:30:22;7.70;99.90
22071;DHT22;11200;51.488;6.668;2023-03-04T17:32:47;7.70;99.90
22071;DHT22;11200;51.488;6.668;2023-03-04T17:35:13;7.90;99.90
22071;DHT22;11200;51.488;6.668;2023-03-04T17:37:38;7.70;99.90
22071;DHT22;11200;51.488;6.668;2023-03-04T17:40:06;7.60;99.90
22071;DHT22;11200;51.488;6.668;2023-03-04T17:42:33;7.60;99.90
22071;DHT22;11200;51.488;6.668;2023-03-04T17:44:59;7.60;99.90
22071;DHT22;11200;51.488;6.668;2023-03-04T17:47:25;7.60;99.90
22071;DHT22;11200;51.488;6.668;2023-03-04T17:49:50;7.60;99.90
22071;DHT22;11200;51.488;6.668;2023-03-04T17:52:16;7.50;99.90
22071;DHT22;11200;51.488;6.668;2023-03-04T17:54:44;7.50;99.90
22071;DHT22;11200;51.488;6.668;2023-03-04T17:57:11;7.50;99.90
22071;DHT22;11200;51.488;6.668;2023-03-04T17:59:36;7.50;99.90
22071;DHT22;11200;51.488;6.668;2023-03-04T18:02:03;7.50;99.90
22071;DHT22;11200;51.488;6.668;2023-03-04T18:04:29;7.40;99.90
22071;DHT22;11200;51.488;6.668;2023-03-04T18:06:55;7.50;99.90
22071;DHT22;11200;51.488;6.668;2023-03-04T18:09:21;7.30;99.90
22071;DHT22;11200;51.488;6.668;2023-03-04T18:11:47;7.40;99.90
22071;DHT22;11200;51.488;6.668;2023-03-04T18:14:13;7.40;99.90
22071;DHT22;11200;51.488;6.668;2023-03-04T18:16:39;7.30;99.90
22071;DHT22;11200;51.488;6.668;2023-03-04T18:19:05;7.30;99.90
22071;DHT22;11200;51.488;6.668;2023-03-04T18:21:31;7.30;99.90
22071;DHT22;11200;51.488;6.668;2023-03-04T18:23:57;7.30;99.90
22071;DHT22;11200;51.488;6.668;2023-03-04T18:26:23;7.30;99.90
22071;DHT22;11200;51.488;6.668;2023-03-04T18:28:50;7.40;99.90
22071;DHT22;11200;51.488;6.668;2023-03-04T18:31:20;7.20;99.90
22071;DHT22;11200;51.488;6.668;2023-03-04T18:33:46;7.20;99.90
22071;DHT22;11200;51.488;6.668;2023-03-04T18:36:12;7.20;99.90
22071;DHT22;11200;51.488;6.668;2023-03-04T18:38:38;7.20;99.90
22071;DHT22;11200;51.488;6.668;2023-03-04T18:41:09;7.20;99.90
22071;DHT22;11200;51.488;6.668;2023-03-04T18:43:35;7.10;99.90
22071;DHT22;11200;51.488;6.668;2023-03-04T18:48:46;7.10;99.90
22071;DHT22;11200;51.488;6.668;2023-03-04T18:51:13;7.10;99.90
22071;DHT22;11200;51.488;6.668;2023-03-04T18:53:38;7.10;99.90
22071;DHT22;11200;51.488;6.668;2023-03-04T18:56:35;7.10;99.90
22071;DHT22;11200;51.488;6.668;2023-03-04T18:59:19;7.00;99.90
22071;DHT22;11200;51.488;6.668;2023-03-04T19:01:46;7.00;99.90
22071;DHT22;11200;51.488;6.668;2023-03-04T19:04:13;7.00;99.90
22071;DHT22;11200;51.488;6.668;2023-03-04T19:06:40;7.00;99.90
22071;DHT22;11200;51.488;6.668;2023-03-04T19:09:06;6.90;99.90
22071;DHT22;11200;51.488;6.668;2023-03-04T19:11:32;6.90;99.90
22071;DHT22;11200;51.488;6.668;2023-03-04T19:13:58;6.90;99.90
22071;DHT22;11200;51.488;6.668;2023-03-04T19:16:23;6.90;99.90
22071;DHT22;11200;51.488;6.668;2023-03-04T19:18:49;6.90;99.90
22071;DHT22;11200;51.488;6.668;2023-03-04T19:21:15;6.90;99.90
22071;DHT22;11200;51.488;6.668;2023-03-04T19:23:41;6.90;99.90
22071;DHT22;11200;51.488;6.668;2023-03-04T19:26:07;6.80;99.90
22071;DHT22;11200;51.488;6.668;2023-03-04T19:28:34;6.80;99.90
22071;DHT22;11200;51.488;6.668;2023-03-04T19:33:28;6.80;99.90
22071;DHT22;11200;51.488;6.668;2023-03-04T19:35:53;6.80;99.90
22071;DHT22;11200;51.488;6.668;2023-03-04T19:38:19;6.80;99.90
22071;DHT22;11200;51.488;6.668;2023-03-04T19:40:45;6.80;99.90
22071;DHT22;11200;51.488;6.668;2023-03-04T19:43:12;6.70;99.90
22071;DHT22;11200;51.488;6.668;2023-03-04T19:45:39;6.70;99.90
22071;DHT22;11200;51.488;6.668;2023-03-04T19:48:05;6.70;99.90
22071;DHT22;11200;51.488;6.668;2023-03-04T19:50:31;6.70;99.90
22071;DHT22;11200;51.488;6.668;2023-03-04T19:52:59;6.70;99.90
22071;DHT22;11200;51.488;6.668;2023-03-04T19:55:25;6.70;99.90
22071;DHT22;11200;51.488;6.668;2023-03-04T19:57:50;6.70;99.90
22071;DHT22;11200;51.488;6.668;2023-03-04T20:00:16;6.70;99.90
22071;DHT22;11200;51.488;6.668;2023-03-04T20:02:42;6.70;99.90
22071;DHT22;11200;51.488;6.668;2023-03-04T20:05:09;6.70;99.90
22071;DHT22;11200;51.488;6.668;2023-03-04T20:07:36;6.80;99.90
22071;DHT22;11200;51.488;6.668;2023-03-04T20:10:02;6.80;99.90
22071;DHT22;11200;51.488;6.668;2023-03-04T20:12:27;6.70;99.90
22071;DHT22;11200;51.488;6.668;2023-03-04T20:14:55;6.60;99.90
22071;DHT22;11200;51.488;6.668;2023-03-04T20:17:21;6.60;99.90
22071;DHT22;11200;51.488;6.668;2023-03-04T20:19:46;6.60;99.90
22071;DHT22;11200;51.488;6.668;2023-03-04T20:22:12;6.60;99.90
22071;DHT22;11200;51.488;6.668;2023-03-04T20:24:38;6.60;99.90
22071;DHT22;11200;51.488;6.668;2023-03-04T20:27:03;6.60;99.90
22071;DHT22;11200;51.488;6.668;2023-03-04T20:29:29;6.50;99.90
22071;DHT22;11200;51.488;6.668;2023-03-04T20:31:55;6.50;99.90
22071;DHT22;11200;51.488;6.668;2023-03-04T20:34:20;6.60;99.90
22071;DHT22;11200;51.488;6.668;2023-03-04T20:36:47;6.40;99.90
22071;DHT22;11200;51.488;6.668;2023-03-04T20:39:12;6.50;99.90
22071;DHT22;11200;51.488;6.668;2023-03-04T20:41:38;6.50;99.90
22071;DHT22;11200;51.488;6.668;2023-03-04T20:44:04;6.50;99.90
22071;DHT22;11200;51.488;6.668;2023-03-04T20:46:38;6.50;99.90
22071;DHT22;11200;51.488;6.668;2023-03-04T20:49:11;6.40;99.90
22071;DHT22;11200;51.488;6.668;2023-03-04T20:51:37;6.40;99.90
22071;DHT22;11200;51.488;6.668;2023-03-04T20:54:04;6.50;99.90
22071;DHT22;11200;51.488;6.668;2023-03-04T20:56:31;6.40;99.90
22071;DHT22;11200;51.488;6.668;2023-03-04T20:58:58;6.40;99.90
22071;DHT22;11200;51.488;6.668;2023-03-04T21:01:24;6.30;99.90
22071;DHT22;11200;51.488;6.668;2023-03-04T21:03:50;6.40;99.90
22071;DHT22;11200;51.488;6.668;2023-03-04T21:06:16;6.30;99.90
22071;DHT22;11200;51.488;6.668;2023-03-04T21:08:42;6.30;99.90
22071;DHT22;11200;51.488;6.668;2023-03-04T21:11:13;6.30;99.90
22071;DHT22;11200;51.488;6.668;2023-03-04T21:13:39;6.30;99.90
22071;DHT22;11200;51.488;6.668;2023-03-04T21:16:12;6.30;99.90
22071;DHT22;11200;51.488;6.668;2023-03-04T21:18:38;6.30;99.90
22071;DHT22;11200;51.488;6.668;2023-03-04T21:21:11;6.30;99.90
22071;DHT22;11200;51.488;6.668;2023-03-04T21:23:38;6.30;99.90
22071;DHT22;11200;51.488;6.668;2023-03-04T21:26:04;6.30;99.90
22071;DHT22;11200;51.488;6.668;2023-03-04T21:28:30;6.30;99.90
22071;DHT22;11200;51.488;6.668;2023-03-04T21:30:56;6.30;99.90
22071;DHT22;11200;51.488;6.668;2023-03-04T21:33:25;6.20;99.90
22071;DHT22;11200;51.488;6.668;2023-03-04T21:35:53;6.20;99.90
22071;DHT22;11200;51.488;6.668;2023-03-04T21:38:19;6.20;99.90
22071;DHT22;11200;51.488;6.668;2023-03-04T21:40:44;6.10;99.90
22071;DHT22;11200;51.488;6.668;2023-03-04T21:43:10;6.10;99.90
22071;DHT22;11200;51.488;6.668;2023-03-04T21:45:36;6.10;99.90
22071;DHT22;11200;51.488;6.668;2023-03-04T21:48:02;6.10;99.90
22071;DHT22;11200;51.488;6.668;2023-03-04T21:50:28;6.10;99.90
22071;DHT22;11200;51.488;6.668;2023-03-04T21:52:54;6.10;99.90
22071;DHT22;11200;51.488;6.668;2023-03-04T21:55:19;6.10;99.90
22071;DHT22;11200;51.488;6.668;2023-03-04T21:57:45;6.10;99.90
22071;DHT22;11200;51.488;6.668;2023-03-04T22:00:11;6.10;99.90
22071;DHT22;11200;51.488;6.668;2023-03-04T22:02:38;6.00;99.90
22071;DHT22;11200;51.488;6.668;2023-03-04T22:05:04;5.90;99.90
22071;DHT22;11200;51.488;6.668;2023-03-04T22:07:30;6.00;99.90
22071;DHT22;11200;51.488;6.668;2023-03-04T22:09:55;6.00;99.90
22071;DHT22;11200;51.488;6.668;2023-03-04T22:12:23;6.00;99.90
22071;DHT22;11200;51.488;6.668;2023-03-04T22:14:49;6.00;99.90
22071;DHT22;11200;51.488;6.668;2023-03-04T22:17:14;5.90;99.90
22071;DHT22;11200;51.488;6.668;2023-03-04T22:19:40;6.00;99.90
22071;DHT22;11200;51.488;6.668;2023-03-04T22:22:06;5.90;99.90
22071;DHT22;11200;51.488;6.668;2023-03-04T22:24:31;5.90;99.90
22071;DHT22;11200;51.488;6.668;2023-03-04T22:26:57;5.90;99.90
22071;DHT22;11200;51.488;6.668;2023-03-04T22:29:24;5.90;99.90
22071;DHT22;11200;51.488;6.668;2023-03-04T22:31:50;5.90;99.90
22071;DHT22;11200;51.488;6.668;2023-03-04T22:34:15;5.90;99.90
22071;DHT22;11200;51.488;6.668;2023-03-04T22:36:43;5.90;99.90
22071;DHT22;11200;51.488;6.668;2023-03-04T22:39:11;5.90;99.90
22071;DHT22;11200;51.488;6.668;2023-03-04T22:41:37;5.80;99.90
22071;DHT22;11200;51.488;6.668;2023-03-04T22:44:03;5.80;99.90
22071;DHT22;11200;51.488;6.668;2023-03-04T22:46:32;5.80;99.90
22071;DHT22;11200;51.488;6.668;2023-03-04T22:49:02;5.80;99.90
22071;DHT22;11200;51.488;6.668;2023-03-04T22:51:33;5.80;99.90
22071;DHT22;11200;51.488;6.668;2023-03-04T22:53:58;5.70;99.90
22071;DHT22;11200;51.488;6.668;2023-03-04T22:56:24;5.70;99.90
22071;DHT22;11200;51.488;6.668;2023-03-04T22:58:50;5.80;99.90
22071;DHT22;11200;51.488;6.668;2023-03-04T23:01:19;5.70;99.90
22071;DHT22;11200;51.488;6.668;2023-03-04T23:03:46;5.60;99.90
22071;DHT22;11200;51.488;6.668;2023-03-04T23:06:18;5.70;99.90
22071;DHT22;11200;51.488;6.668;2023-03-04T23:08:46;5.70;99.90
22071;DHT22;11200;51.488;6.668;2023-03-04T23:11:29;5.70;99.90
22071;DHT22;11200;51.488;6.668;2023-03-04T23:13:56;5.70;99.90
